createdAt,value
2023-02-27T00:00:23.613Z,-0.08
2023-02-27T00:03:46.688Z,-0.06
2023-02-27T00:06:49.406Z,-0.05
2023-02-27T00:09:52.820Z,-0.04
2023-02-27T00:12:56.120Z,-0.05
2023-02-27T00:15:59.010Z,-0.09
2023-02-27T00:19:04.823Z,-0.13
2023-02-27T00:22:07.517Z,-0.13
2023-02-27T00:25:10.883Z,-0.16
2023-02-27T00:28:13.503Z,-0.17
2023-02-27T00:31:16.269Z,-0.19
2023-02-27T00:34:19.068Z,-0.20
2023-02-27T00:37:21.719Z,-0.19
2023-02-27T00:40:25.525Z,-0.05
2023-02-27T00:43:28.196Z,0.14
2023-02-27T00:46:32.474Z,0.24
2023-02-27T00:49:35.131Z,0.37
2023-02-27T00:52:37.944Z,0.51
2023-02-27T00:55:40.615Z,0.59
2023-02-27T00:58:43.256Z,0.59
2023-02-27T01:01:45.962Z,0.55
2023-02-27T01:04:48.651Z,0.48
2023-02-27T01:07:51.440Z,0.42
2023-02-27T01:10:55.011Z,0.35
2023-02-27T01:13:57.617Z,0.28
2023-02-27T01:17:00.282Z,0.21
2023-02-27T01:20:03.608Z,0.16
2023-02-27T01:23:06.369Z,0.10
2023-02-27T01:26:09.075Z,0.04
2023-02-27T01:29:11.719Z,-0.04
2023-02-27T01:32:14.880Z,-0.06
2023-02-27T01:35:18.040Z,-0.12
2023-02-27T01:38:20.706Z,-0.18
2023-02-27T01:41:23.346Z,-0.19
2023-02-27T01:44:29.079Z,-0.15
2023-02-27T01:47:32.453Z,0.01
2023-02-27T01:50:37.082Z,0.12
2023-02-27T01:53:41.822Z,0.23
2023-02-27T01:56:48.372Z,0.34
2023-02-27T01:59:51.042Z,0.43
2023-02-27T02:02:59.528Z,0.47
2023-02-27T02:06:04.226Z,0.38
2023-02-27T02:09:07.908Z,0.30
2023-02-27T02:12:14.954Z,0.25
2023-02-27T02:15:19.583Z,0.18
2023-02-27T02:18:27.222Z,0.07
2023-02-27T02:21:32.705Z,-0.03
2023-02-27T02:24:50.131Z,-0.07
2023-02-27T02:27:55.528Z,-0.12
2023-02-27T02:31:16.848Z,-0.16
2023-02-27T02:34:19.545Z,-0.20
2023-02-27T02:37:34.511Z,-0.25
2023-02-27T02:40:40.331Z,-0.29
2023-02-27T02:43:50.147Z,-0.30
2023-02-27T02:47:12.203Z,-0.29
2023-02-27T02:50:22.284Z,-0.20
2023-02-27T02:53:36.730Z,-0.06
2023-02-27T02:56:47.883Z,0.11
2023-02-27T02:59:55.936Z,0.23
2023-02-27T03:03:24.764Z,0.30
2023-02-27T03:06:36.185Z,0.44
2023-02-27T03:09:52.963Z,0.56
2023-02-27T03:13:12.402Z,0.56
2023-02-27T03:16:27.518Z,0.48
2023-02-27T03:19:46.329Z,0.42
2023-02-27T03:22:52.420Z,0.32
2023-02-27T03:25:58.232Z,0.21
2023-02-27T03:29:06.363Z,0.11
2023-02-27T03:32:15.230Z,0.04
2023-02-27T03:35:18.315Z,0.02
2023-02-27T03:38:41.758Z,0.09
2023-02-27T03:41:50.940Z,0.21
2023-02-27T03:45:06.408Z,0.35
2023-02-27T03:48:09.201Z,0.52
2023-02-27T03:51:17.573Z,0.61
2023-02-27T03:54:20.184Z,0.65
2023-02-27T03:57:23.138Z,0.64
2023-02-27T04:00:26.696Z,0.58
2023-02-27T04:03:32.796Z,0.54
2023-02-27T04:06:56.230Z,0.46
2023-02-27T04:10:12.455Z,0.41
2023-02-27T04:13:15.169Z,0.31
2023-02-27T04:16:20.868Z,0.22
2023-02-27T04:19:23.641Z,0.18
2023-02-27T04:22:34.054Z,0.14
2023-02-27T04:25:41.652Z,0.09
2023-02-27T04:28:47.174Z,0.07
2023-02-27T04:32:02.575Z,0.01
2023-02-27T04:35:21.692Z,-0.08
2023-02-27T04:38:37.931Z,-0.09
2023-02-27T04:41:47.255Z,-0.10
2023-02-27T04:44:51.663Z,-0.00
2023-02-27T04:48:06.936Z,0.12
2023-02-27T04:51:14.456Z,0.26
2023-02-27T04:54:21.450Z,0.38
2023-02-27T04:57:28.263Z,0.51
2023-02-27T05:00:32.778Z,0.60
2023-02-27T05:03:38.732Z,0.66
2023-02-27T05:06:43.332Z,0.66
2023-02-27T05:09:45.951Z,0.60
2023-02-27T05:12:51.561Z,0.56
2023-02-27T05:16:07.902Z,0.54
2023-02-27T05:19:11.043Z,0.48
2023-02-27T05:22:21.881Z,0.44
2023-02-27T05:25:30.991Z,0.35
2023-02-27T05:28:46.482Z,0.31
2023-02-27T05:31:55.195Z,0.26
2023-02-27T05:35:03.293Z,0.29
2023-02-27T05:38:10.357Z,0.36
2023-02-27T05:41:16.431Z,0.47
2023-02-27T05:44:21.017Z,0.57
2023-02-27T05:47:26.867Z,0.57
2023-02-27T05:50:32.152Z,0.62
2023-02-27T05:53:38.178Z,0.69
2023-02-27T05:56:47.092Z,0.69
2023-02-27T06:00:03.410Z,0.59
2023-02-27T06:03:14.749Z,0.49
2023-02-27T06:06:19.107Z,0.43
2023-02-27T06:09:22.245Z,0.41
2023-02-27T06:12:25.438Z,0.32
2023-02-27T06:15:28.505Z,0.25
2023-02-27T06:18:31.186Z,0.23
2023-02-27T06:21:33.928Z,0.38
2023-02-27T06:24:37.039Z,0.51
2023-02-27T06:27:39.694Z,0.54
2023-02-27T06:30:42.753Z,0.57
2023-02-27T06:33:46.403Z,0.67
2023-02-27T06:36:49.075Z,0.77
2023-02-27T06:39:52.114Z,0.87
2023-02-27T06:42:54.946Z,0.86
2023-02-27T06:45:57.795Z,0.76
2023-02-27T06:49:00.456Z,0.67
2023-02-27T06:52:03.120Z,0.62
2023-02-27T06:55:07.260Z,0.60
2023-02-27T06:58:09.888Z,0.58
2023-02-27T07:01:13.551Z,0.45
2023-02-27T07:04:16.569Z,0.32
2023-02-27T07:07:35.531Z,0.27
2023-02-27T07:10:42.896Z,0.24
2023-02-27T07:13:45.535Z,0.23
2023-02-27T07:16:51.036Z,0.27
2023-02-27T07:19:54.650Z,0.36
2023-02-27T07:22:57.419Z,0.43
2023-02-27T07:26:00.322Z,0.52
2023-02-27T07:29:03.589Z,0.60
2023-02-27T07:32:06.409Z,0.62
2023-02-27T07:35:09.840Z,0.53
2023-02-27T07:38:12.508Z,0.45
2023-02-27T07:41:29.512Z,0.35
2023-02-27T07:44:35.715Z,0.24
2023-02-27T07:47:38.484Z,0.19
2023-02-27T07:50:41.104Z,0.15
2023-02-27T07:53:44.065Z,0.12
2023-02-27T07:56:46.683Z,0.15
2023-02-27T07:59:49.325Z,0.22
2023-02-27T08:02:51.986Z,0.25
2023-02-27T08:05:54.645Z,0.23
2023-02-27T08:08:57.470Z,0.15
2023-02-27T08:12:00.121Z,0.13
2023-02-27T08:15:02.901Z,0.16
2023-02-27T08:18:05.553Z,0.22
2023-02-27T08:21:08.614Z,0.34
2023-02-27T08:24:11.242Z,0.38
2023-02-27T08:27:14.731Z,0.35
2023-02-27T08:30:17.432Z,0.32
2023-02-27T08:33:20.133Z,0.33
2023-02-27T08:36:22.747Z,0.29
2023-02-27T08:39:25.389Z,0.24
2023-02-27T08:42:28.558Z,0.38
2023-02-27T08:45:31.188Z,0.62
2023-02-27T08:48:33.954Z,0.74
2023-02-27T08:51:36.569Z,0.82
2023-02-27T08:54:39.173Z,0.80
2023-02-27T08:57:41.801Z,0.64
2023-02-27T09:00:44.427Z,0.53
2023-02-27T09:03:47.063Z,0.49
2023-02-27T09:06:49.662Z,0.46
2023-02-27T09:09:52.260Z,0.39
2023-02-27T09:12:54.866Z,0.33
2023-02-27T09:15:57.498Z,0.33
2023-02-27T09:19:00.276Z,0.42
2023-02-27T09:22:02.875Z,0.55
2023-02-27T09:25:06.019Z,0.71
2023-02-27T09:28:08.709Z,0.69
2023-02-27T09:31:12.369Z,0.71
2023-02-27T09:34:15.067Z,0.78
2023-02-27T09:37:19.237Z,0.99
2023-02-27T09:40:24.377Z,1.14
2023-02-27T09:43:32.662Z,1.21
2023-02-27T09:46:35.406Z,1.26
2023-02-27T09:49:48.090Z,1.26
2023-02-27T09:52:50.684Z,1.22
2023-02-27T09:55:54.611Z,1.14
2023-02-27T09:59:03.252Z,1.01
2023-02-27T10:02:17.931Z,0.93
2023-02-27T10:05:32.353Z,1.02
2023-02-27T10:08:41.151Z,1.08
2023-02-27T10:11:43.794Z,1.03
2023-02-27T10:14:57.055Z,0.82
2023-02-27T10:17:59.758Z,0.68
2023-02-27T10:21:13.342Z,0.83
2023-02-27T10:24:27.690Z,1.17
2023-02-27T10:27:31.341Z,1.30
2023-02-27T10:30:35.074Z,1.26
2023-02-27T10:33:39.522Z,1.08
2023-02-27T10:36:46.680Z,0.94
2023-02-27T10:39:57.717Z,0.95
2023-02-27T10:43:01.787Z,1.10
2023-02-27T10:46:11.006Z,1.30
2023-02-27T10:49:16.934Z,1.38
2023-02-27T10:52:21.245Z,1.47
2023-02-27T10:55:28.513Z,1.55
2023-02-27T10:58:35.004Z,1.78
2023-02-27T11:01:42.580Z,2.04
2023-02-27T11:04:56.010Z,2.14
2023-02-27T11:08:20.743Z,2.04
2023-02-27T11:11:28.177Z,1.89
2023-02-27T11:14:34.486Z,1.78
2023-02-27T11:17:37.265Z,1.63
2023-02-27T11:20:43.384Z,1.51
2023-02-27T11:23:55.388Z,1.43
2023-02-27T11:27:05.635Z,1.47
2023-02-27T11:30:22.466Z,1.68
2023-02-27T11:33:26.306Z,1.83
2023-02-27T11:36:39.229Z,1.84
2023-02-27T11:40:02.066Z,1.69
2023-02-27T11:43:07.318Z,1.85
2023-02-27T11:46:45.147Z,2.12
2023-02-27T11:49:55.230Z,2.17
2023-02-27T11:53:01.241Z,2.05
2023-02-27T11:56:05.661Z,1.89
2023-02-27T11:59:16.913Z,1.84
2023-02-27T12:02:19.648Z,2.09
2023-02-27T12:05:30.625Z,2.16
2023-02-27T12:08:49.148Z,2.01
2023-02-27T12:11:52.179Z,1.79
2023-02-27T12:15:13.256Z,1.63
2023-02-27T12:18:23.208Z,1.55
2023-02-27T12:21:28.500Z,1.59
2023-02-27T12:24:41.136Z,1.73
2023-02-27T12:27:47.078Z,1.81
2023-02-27T12:31:00.876Z,1.81
2023-02-27T12:34:03.500Z,1.75
2023-02-27T12:37:11.217Z,1.64
2023-02-27T12:40:15.731Z,1.64
2023-02-27T12:43:28.593Z,1.59
2023-02-27T12:46:34.330Z,1.51
2023-02-27T12:49:37.029Z,1.47
2023-02-27T12:53:08.925Z,1.44
2023-02-27T12:56:17.398Z,1.36
2023-02-27T12:59:29.011Z,1.30
2023-02-27T13:02:54.130Z,1.25
2023-02-27T13:06:10.762Z,1.21
2023-02-27T13:09:25.938Z,1.21
2023-02-27T13:12:28.610Z,1.18
2023-02-27T13:15:35.171Z,1.14
2023-02-27T13:18:40.852Z,1.13
2023-02-27T13:21:43.483Z,1.15
2023-02-27T13:24:49.317Z,1.14
2023-02-27T13:27:54.197Z,1.16
2023-02-27T13:31:05.964Z,1.21
2023-02-27T13:34:16.075Z,1.24
2023-02-27T13:37:18.829Z,1.21
2023-02-27T13:40:29.186Z,1.18
2023-02-27T13:43:51.149Z,1.12
2023-02-27T13:46:54.356Z,1.15
2023-02-27T13:49:57.628Z,1.19
2023-02-27T13:53:08.637Z,1.16
2023-02-27T13:56:22.722Z,1.14
2023-02-27T13:59:25.353Z,1.12
2023-02-27T14:02:57.785Z,1.10
2023-02-27T14:06:03.068Z,1.06
2023-02-27T14:09:15.085Z,1.06
2023-02-27T14:12:42.553Z,1.05
2023-02-27T14:15:47.002Z,1.03
2023-02-27T14:18:57.735Z,1.02
2023-02-27T14:22:24.516Z,0.99
2023-02-27T14:25:32.087Z,0.93
2023-02-27T14:28:47.501Z,0.91
2023-02-27T14:31:51.276Z,0.91
2023-02-27T14:34:54.889Z,0.88
2023-02-27T14:37:59.108Z,0.83
2023-02-27T14:41:15.920Z,0.80
2023-02-27T14:44:23.454Z,0.77
2023-02-27T14:47:35.175Z,0.75
2023-02-27T14:50:40.307Z,0.71
2023-02-27T14:53:42.999Z,0.71
2023-02-27T14:57:04.250Z,0.72
2023-02-27T15:00:07.471Z,0.75
2023-02-27T15:03:18.773Z,0.77
2023-02-27T15:06:30.673Z,0.78
2023-02-27T15:09:43.057Z,0.80
2023-02-27T15:12:45.992Z,0.79
2023-02-27T15:15:49.427Z,0.76
2023-02-27T15:18:53.589Z,0.73
2023-02-27T15:21:58.862Z,0.72
2023-02-27T15:25:03.773Z,0.71
2023-02-27T15:28:08.118Z,0.71
2023-02-27T15:31:13.166Z,0.70
2023-02-27T15:34:16.198Z,0.66
2023-02-27T15:37:21.189Z,0.67
2023-02-27T15:40:26.058Z,0.66
2023-02-27T15:43:29.613Z,0.62
2023-02-27T15:46:33.178Z,0.63
2023-02-27T15:49:36.291Z,0.62
2023-02-27T15:52:41.857Z,0.64
2023-02-27T15:55:50.769Z,0.64
2023-02-27T15:59:00.144Z,0.76
2023-02-27T16:02:04.840Z,0.78
2023-02-27T16:05:15.830Z,0.77
2023-02-27T16:08:20.054Z,0.74
2023-02-27T16:11:27.019Z,0.69
2023-02-27T16:14:41.172Z,0.68
2023-02-27T16:17:57.600Z,0.68
2023-02-27T16:21:11.241Z,0.70
2023-02-27T16:24:21.155Z,0.72
2023-02-27T16:27:27.771Z,0.70
2023-02-27T16:30:30.409Z,0.64
2023-02-27T16:33:36.668Z,0.57
2023-02-27T16:36:41.054Z,0.46
2023-02-27T16:39:43.734Z,0.36
2023-02-27T16:42:46.776Z,0.30
2023-02-27T16:45:50.977Z,0.23
2023-02-27T16:48:55.288Z,0.15
2023-02-27T16:51:58.816Z,0.10
2023-02-27T16:55:02.244Z,0.04
2023-02-27T16:58:06.461Z,-0.02
2023-02-27T17:01:09.164Z,-0.10
2023-02-27T17:04:24.971Z,-0.19
2023-02-27T17:07:28.355Z,-0.25
2023-02-27T17:10:30.976Z,-0.27
2023-02-27T17:13:36.586Z,-0.25
2023-02-27T17:16:39.370Z,-0.23
2023-02-27T17:19:42.123Z,-0.25
2023-02-27T17:22:45.204Z,-0.25
2023-02-27T17:25:48.111Z,-0.27
2023-02-27T17:28:50.814Z,-0.32
2023-02-27T17:31:53.482Z,-0.35
2023-02-27T17:34:56.585Z,-0.37
2023-02-27T17:37:59.604Z,-0.39
2023-02-27T17:41:09.598Z,-0.44
2023-02-27T17:44:12.460Z,-0.47
2023-02-27T17:47:15.419Z,-0.43
2023-02-27T17:50:18.232Z,-0.35
2023-02-27T17:53:20.840Z,-0.31
2023-02-27T17:56:24.151Z,-0.26
2023-02-27T17:59:26.970Z,-0.26
2023-02-27T18:02:29.958Z,-0.21
2023-02-27T18:05:32.799Z,-0.17
2023-02-27T18:08:36.043Z,-0.15
2023-02-27T18:11:38.983Z,-0.20
2023-02-27T18:14:41.613Z,-0.33
2023-02-27T18:17:44.735Z,-0.50
2023-02-27T18:20:47.437Z,-0.60
2023-02-27T18:23:51.738Z,-0.66
2023-02-27T18:26:54.636Z,-0.69
2023-02-27T18:29:57.741Z,-0.73
2023-02-27T18:33:00.392Z,-0.75
2023-02-27T18:36:03.117Z,-0.76
2023-02-27T18:39:06.356Z,-0.75
2023-02-27T18:42:09.239Z,-0.59
2023-02-27T18:45:12.068Z,-0.47
2023-02-27T18:48:16.075Z,-0.42
2023-02-27T18:51:19.751Z,-0.44
2023-02-27T18:54:22.443Z,-0.48
2023-02-27T18:57:25.207Z,-0.51
2023-02-27T19:00:27.961Z,-0.50
2023-02-27T19:03:31.167Z,-0.48
2023-02-27T19:06:35.736Z,-0.59
2023-02-27T19:09:38.461Z,-0.68
2023-02-27T19:12:42.364Z,-0.75
2023-02-27T19:15:45.112Z,-0.85
2023-02-27T19:18:47.789Z,-0.90
2023-02-27T19:21:50.600Z,-0.99
2023-02-27T19:24:53.293Z,-1.08
2023-02-27T19:27:56.693Z,-1.19
2023-02-27T19:30:59.633Z,-1.24
2023-02-27T19:34:02.351Z,-1.31
2023-02-27T19:37:05.046Z,-1.35
2023-02-27T19:40:08.964Z,-1.37
2023-02-27T19:43:15.193Z,-1.34
2023-02-27T19:46:22.271Z,-1.36
2023-02-27T19:49:25.094Z,-1.36
2023-02-27T19:52:29.673Z,-1.34
2023-02-27T19:55:32.585Z,-1.32
2023-02-27T19:58:36.097Z,-1.32
2023-02-27T20:01:39.150Z,-1.37
2023-02-27T20:04:42.035Z,-1.39
2023-02-27T20:07:46.961Z,-1.43
2023-02-27T20:11:02.925Z,-1.48
2023-02-27T20:14:05.787Z,-1.51
2023-02-27T20:17:08.495Z,-1.40
2023-02-27T20:20:11.561Z,-1.24
2023-02-27T20:23:15.431Z,-1.18
2023-02-27T20:26:26.595Z,-1.06
2023-02-27T20:29:29.399Z,-1.03
2023-02-27T20:32:32.188Z,-1.07
2023-02-27T20:35:38.787Z,-1.06
2023-02-27T20:38:41.535Z,-1.05
2023-02-27T20:41:45.060Z,-1.05
2023-02-27T20:44:48.498Z,-1.06
2023-02-27T20:47:51.386Z,-1.07
2023-02-27T20:50:54.017Z,-1.08
2023-02-27T20:53:58.773Z,-1.12
2023-02-27T20:57:01.457Z,-1.18
2023-02-27T21:00:05.429Z,-1.22
2023-02-27T21:03:08.234Z,-1.28
2023-02-27T21:06:13.145Z,-1.34
2023-02-27T21:09:16.240Z,-1.42
2023-02-27T21:12:43.094Z,-1.46
2023-02-27T21:16:27.546Z,-1.51
2023-02-27T21:19:30.225Z,-1.57
2023-02-27T21:22:32.992Z,-1.62
2023-02-27T21:25:40.395Z,-1.69
2023-02-27T21:28:47.791Z,-1.73
2023-02-27T21:31:51.392Z,-1.74
2023-02-27T21:34:54.273Z,-1.73
2023-02-27T21:37:56.995Z,-1.72
2023-02-27T21:41:04.187Z,-1.74
2023-02-27T21:44:07.463Z,-1.73
2023-02-27T21:47:10.418Z,-1.74
2023-02-27T21:50:18.138Z,-1.76
2023-02-27T21:53:20.860Z,-1.73
2023-02-27T21:56:23.873Z,-1.76
2023-02-27T21:59:26.487Z,-1.82
2023-02-27T22:02:29.150Z,-1.82
2023-02-27T22:05:31.958Z,-1.81
2023-02-27T22:08:34.577Z,-1.81
2023-02-27T22:11:37.270Z,-1.82
2023-02-27T22:14:39.944Z,-1.81
2023-02-27T22:17:42.553Z,-1.81
2023-02-27T22:20:45.160Z,-1.80
2023-02-27T22:23:48.310Z,-1.79
2023-02-27T22:26:50.943Z,-1.78
2023-02-27T22:29:53.596Z,-1.78
2023-02-27T22:32:56.412Z,-1.78
2023-02-27T22:35:59.061Z,-1.78
2023-02-27T22:39:01.890Z,-1.77
2023-02-27T22:42:04.585Z,-1.77
2023-02-27T22:45:07.647Z,-1.76
2023-02-27T22:48:10.499Z,-1.75
2023-02-27T22:51:14.621Z,-1.73
2023-02-27T22:54:17.583Z,-1.72
2023-02-27T22:57:20.243Z,-1.66
2023-02-27T23:00:23.081Z,-1.56
2023-02-27T23:03:25.737Z,-1.47
2023-02-27T23:06:33.818Z,-1.38
2023-02-27T23:09:36.438Z,-1.24
2023-02-27T23:12:39.027Z,-1.14
2023-02-27T23:15:41.879Z,-1.13
2023-02-27T23:18:46.386Z,-1.19
2023-02-27T23:21:49.138Z,-1.19
2023-02-27T23:24:51.815Z,-1.18
2023-02-27T23:27:54.412Z,-1.19
2023-02-27T23:30:57.168Z,-1.24
2023-02-27T23:33:59.776Z,-1.35
2023-02-27T23:37:04.325Z,-1.46
2023-02-27T23:40:07.835Z,-1.55
2023-02-27T23:43:10.817Z,-1.63
2023-02-27T23:46:14.657Z,-1.70
2023-02-27T23:49:17.497Z,-1.78
2023-02-27T23:52:20.114Z,-1.78
2023-02-27T23:55:22.969Z,-1.66
2023-02-27T23:58:25.717Z,-1.54
